Time;durP1;ratioP1;P1;durP2;ratioP2;P2;SDS_P1;SDS_P2;PMS_P1;PMS_P2;Temp;Humidity;BMP_temperature;BMP_pressure;BME280_temperature;BME280_humidity;BME280_pressure;Samples;Min_cycle;Max_cycle;Signal;HPM_P1;HPM_P2
2023/09/16 06:34:09;;;;;;;;;;;;;;;;;;;;;
2023/09/16 08:18:15;;;;;;;;;9.75;9.75;;;;;21.07;69.69;100634.75;5695965;24;45561;-65
2023/09/16 08:20:41;;;;;;;;;11.75;11.00;;;;;21.26;69.83;100650.44;5753743;24;45547;-66
2023/09/16 08:23:20;;;;;;;;;12.00;11.25;;;;;21.13;69.33;100627.97;5922187;23;45506;-66
2023/09/16 08:25:46;;;;;;;;;14.50;13.25;;;;;21.31;69.47;100652.81;6098828;23;45391;-65
2023/09/16 08:28:11;;;;;;;;;11.50;10.00;;;;;21.35;69.01;100665.16;6124530;23;45318;-66
2023/09/16 08:30:36;;;;;;;;;12.50;11.25;;;;;21.34;68.98;100649.00;6124951;23;45383;-66
2023/09/16 08:33:02;;;;;;;;;12.25;11.00;;;;;21.11;68.80;100613.66;6125189;23;45297;-66
2023/09/16 08:35:27;;;;;;;;;11.25;9.75;;;;;21.10;69.05;100601.97;6124818;23;45766;-66
2023/09/16 08:37:58;;;;;;;;;8.50;8.50;;;;;21.23;69.10;100604.56;6125177;23;45266;-66
2023/09/16 08:41:00;;;;;;;;;4.75;4.75;;;;;21.20;69.16;100596.66;6125266;23;45403;-66
2023/09/16 08:44:02;;;;;;;;;9.75;9.75;;;;;21.15;69.19;100598.00;6121743;23;45556;-67
2023/09/16 08:46:30;;;;;;;;;12.25;12.25;;;;;21.52;69.06;100658.44;6120113;23;46417;-66
2023/09/16 08:48:59;;;;;;;;;12.25;10.00;;;;;21.50;69.14;100649.56;6126656;23;45478;-66
2023/09/16 09:13:26;;;;;;;;;10.50;8.25;;;;;21.98;68.62;100657.41;5947803;23;45827;-68
2023/09/16 09:16:02;;;;;;;;;9.50;9.50;;;;;21.87;68.97;100629.38;5968808;23;45383;-66
2023/09/16 09:18:33;;;;;;;;;10.50;9.75;;;;;21.83;68.42;100615.19;6037196;23;45572;-66
2023/09/16 09:21:21;;;;;;;;;;;;;;;;;;;;;
2023/09/16 09:23:47;;;;;;;;;10.00;10.00;;;;;22.05;68.44;100630.59;6063023;23;75444;-66
2023/09/16 09:26:15;;;;;;;;;9.00;8.00;;;;;22.02;68.28;100620.00;6064885;23;45280;-66
2023/09/16 09:35:59;;;;;;;;;;;;;;;;;;;;;
2023/09/16 09:45:49;;;;;;;;;9.50;8.75;;;;;22.30;67.33;100612.28;5872827;23;45322;-70
2023/09/16 09:49:14;;;;;;;;;11.75;10.25;;;;;22.50;67.17;100635.94;6019755;23;46350;-68
2023/09/16 09:51:49;;;;;;;;;;;;;;;;;;;;;
2023/09/16 09:54:37;;;;;;;;;12.00;9.25;;;;;22.49;66.34;100607.00;6124411;23;67402;-66
2023/09/16 09:57:04;;;;;;;;;10.25;9.50;;;;;22.45;66.00;100589.22;6125049;23;45530;-66
2023/09/16 10:18:51;;;;;;;;;11.50;8.75;;;;;22.66;65.31;100562.03;6204083;22;45969;-68
2023/09/16 10:43:15;;;;;;;;;10.00;8.00;;;;;23.48;64.45;100628.47;6148745;23;45531;-68
2023/09/16 11:03:43;;;;;;;;;7.75;7.75;;;;;23.74;64.18;100625.25;6115143;23;45444;-68
2023/09/16 11:06:51;;;;;;;;;;;;;;;;;;;;;
2023/09/16 11:09:41;;;;;;;;;9.75;9.00;;;;;23.81;63.61;100629.19;6085725;23;72788;-68
2023/09/16 11:16:16;;;;;;;;;;;;;;;;;;;;;
2023/09/16 11:19:31;;;;;;;;;11.25;11.25;;;;;23.94;62.97;100628.94;6163123;23;69032;-69
2023/09/16 11:23:07;;;;;;;;;;;;;;;;;;;;;
2023/09/16 12:17:10;;;;;;;;;7.25;7.25;;;;;24.52;61.84;100598.16;6148873;23;45399;-72
2023/09/16 14:22:41;;;;;;;;;;;;;;;;;;;;;
2023/09/16 14:28:33;;;;;;;;;11.00;9.75;;;;;25.96;57.76;100582.56;6197100;22;45507;-65
2023/09/16 14:34:50;;;;;;;;;11.25;10.25;;;;;25.95;58.47;100580.81;6197631;22;45359;-66
2023/09/16 14:38:09;;;;;;;;;;;;;;;;;;;;;
2023/09/16 14:41:49;;;;;;;;;;;;;;;;;;;;;
2023/09/16 14:45:05;;;;;;;;;;;;;;;;;;;;;
2023/09/16 14:48:31;;;;;;;;;8.00;7.75;;;;;25.93;59.29;100569.16;6213873;22;72984;-68
2023/09/16 15:02:27;;;;;;;;;;;;;;;;;;;;;
2023/09/16 15:30:52;;;;;;;;;9.25;9.25;;;;;25.88;59.63;100551.34;6033010;23;45527;-65
2023/09/16 15:33:17;;;;;;;;;9.75;8.25;;;;;25.85;60.22;100548.06;6081716;23;45479;-64
2023/09/16 15:39:43;;;;;;;;;;;;;;;;;;;;;
2023/09/16 15:53:53;;;;;;;;;;;;;;;;;;;;;
2023/09/16 15:59:41;;;;;;;;;8.00;7.75;;;;;25.82;59.35;100557.44;6076040;23;45549;-70
2023/09/16 16:02:08;;;;;;;;;9.75;8.00;;;;;26.05;58.71;100593.44;6185412;22;46405;-67
2023/09/16 19:19:06;;;;;;;;;;;;;;;;;;;;;
2023/09/16 20:44:06;;;;;;;;;7.00;6.25;;;;;24.61;64.84;100709.25;6206004;22;46650;-70
2023/09/16 20:53:36;;;;;;;;;;;;;;;;;;;;;
2023/09/16 20:55:51;;;;;;;;;7.25;7.25;;;;;24.66;65.40;100731.50;6141748;23;45553;-66
2023/09/16 20:58:17;;;;;;;;;10.50;9.50;;;;;24.56;65.24;100712.38;6198869;22;45407;-66
2023/09/16 21:00:46;;;;;;;;;6.75;6.75;;;;;24.59;65.73;100728.47;6210907;22;45704;-66
2023/09/16 21:03:11;;;;;;;;;9.25;8.75;;;;;24.59;65.97;100728.47;6208813;22;48155;-66
2023/09/16 21:05:42;;;;;;;;;9.25;9.25;;;;;24.21;66.01;100678.25;6209812;22;45415;-66
2023/09/16 21:08:30;;;;;;;;;10.50;8.75;;;;;24.47;65.36;100720.50;6211979;22;45382;-66
2023/09/16 21:11:23;;;;;;;;;11.50;10.25;;;;;24.53;65.76;100733.59;6209838;22;45485;-67
2023/09/16 21:13:49;;;;;;;;;8.50;8.00;;;;;24.27;65.95;100704.09;6206498;22;45610;-66
2023/09/16 21:16:17;;;;;;;;;11.00;9.00;;;;;24.29;66.39;100702.13;6209038;22;45662;-67
2023/09/16 21:18:55;;;;;;;;;;;;;;;;;;;;;
2023/09/16 21:21:23;;;;;;;;;9.50;9.00;;;;;24.16;66.19;100675.09;6210453;22;72471;-66
2023/09/16 21:23:56;;;;;;;;;10.50;9.50;;;;;24.21;66.11;100693.75;6208151;22;48170;-66
2023/09/16 21:30:22;;;;;;;;;;;;;;;;;;;;;
2023/09/16 21:36:41;;;;;;;;;;;;;;;;;;;;;
2023/09/16 21:39:38;;;;;;;;;11.50;9.50;;;;;24.01;67.37;100671.88;6210327;22;72752;-66
2023/09/16 21:42:23;;;;;;;;;7.50;7.50;;;;;24.00;67.30;100669.28;6211326;22;45405;-67
2023/09/16 21:45:01;;;;;;;;;;;;;;;;;;;;;
2023/09/16 21:47:29;;;;;;;;;8.25;8.25;;;;;23.97;67.35;100677.75;6210054;22;73716;-66
2023/09/16 21:49:55;;;;;;;;;9.75;8.00;;;;;24.11;67.07;100701.06;6208671;22;45512;-66
2023/09/16 21:53:35;;;;;;;;;8.50;6.75;;;;;23.76;66.80;100653.25;6210439;22;45414;-66
2023/09/16 22:02:52;;;;;;;;;8.25;8.25;;;;;24.01;68.06;100715.50;6176599;22;45676;-66
2023/09/16 22:05:22;;;;;;;;;8.00;8.00;;;;;23.86;67.67;100704.09;6215556;22;45582;-65
2023/09/16 22:07:48;;;;;;;;;7.50;7.50;;;;;23.77;67.90;100690.41;6215981;22;45470;-65
2023/09/16 22:10:13;;;;;;;;;6.00;6.00;;;;;23.77;67.40;100693.13;6213974;22;46903;-65
2023/09/16 22:12:39;;;;;;;;;9.00;9.00;;;;;23.77;68.12;100695.84;6215544;22;45321;-65
2023/09/16 22:15:05;;;;;;;;;7.25;7.25;;;;;23.83;67.87;100701.66;6216253;22;45323;-64
2023/09/16 22:17:31;;;;;;;;;7.50;7.50;;;;;23.53;67.71;100650.72;6216476;22;45281;-65
2023/09/16 22:19:56;;;;;;;;;9.75;8.50;;;;;23.82;68.15;100704.50;6216479;22;45265;-65
2023/09/16 22:22:22;;;;;;;;;8.00;8.00;;;;;23.48;68.00;100658.44;6216162;22;45208;-65
2023/09/16 22:24:48;;;;;;;;;9.50;8.50;;;;;23.82;68.44;100720.88;6216154;22;45396;-65
2023/09/16 22:27:13;;;;;;;;;8.50;8.50;;;;;23.57;68.48;100684.00;6213504;22;45455;-65
2023/09/16 22:29:39;;;;;;;;;11.25;11.25;;;;;23.44;68.19;100667.88;6213974;22;47047;-65
2023/09/16 22:32:04;;;;;;;;;7.00;7.00;;;;;23.68;68.80;100711.16;6216333;22;45428;-65
2023/09/16 22:34:33;;;;;;;;;10.00;10.00;;;;;23.37;68.62;100664.84;6216084;22;45357;-64
2023/09/16 22:36:59;;;;;;;;;8.00;8.00;;;;;23.44;68.24;100679.63;6215656;22;45529;-65
2023/09/16 22:39:24;;;;;;;;;10.50;9.00;;;;;23.47;68.70;100687.53;6216201;22;46379;-65
2023/09/16 22:41:50;;;;;;;;;7.00;7.00;;;;;23.43;69.05;100691.50;6215896;22;45232;-65
2023/09/16 22:44:15;;;;;;;;;8.00;8.00;;;;;23.31;68.46;100674.38;6215411;22;45485;-65
2023/09/16 22:46:40;;;;;;;;;7.25;7.25;;;;;23.51;68.43;100704.47;6213307;22;45477;-65
2023/09/16 22:49:06;;;;;;;;;6.75;6.75;;;;;23.57;68.71;100717.56;6215206;22;45568;-65
2023/09/16 22:51:31;;;;;;;;;8.25;8.25;;;;;23.44;68.59;100690.53;6213374;22;45257;-65
2023/09/16 22:53:57;;;;;;;;;7.75;7.50;;;;;23.47;68.94;100703.00;6216074;22;45277;-65
2023/09/16 22:56:22;;;;;;;;;7.00;7.00;;;;;23.62;68.27;100718.03;6216188;22;45161;-65
2023/09/16 22:58:50;;;;;;;;;6.00;6.00;;;;;23.30;68.58;100664.50;6215887;22;45425;-65
2023/09/16 23:01:15;;;;;;;;;8.25;8.25;;;;;23.41;68.73;100688.06;6216249;22;45305;-65
2023/09/16 23:03:41;;;;;;;;;8.00;8.00;;;;;23.63;68.42;100718.88;6216103;22;45382;-65
2023/09/16 23:06:06;;;;;;;;;7.50;7.50;;;;;23.48;68.58;100707.47;6215167;22;45470;-65
2023/09/16 23:08:32;;;;;;;;;8.75;8.00;;;;;23.32;68.90;100680.69;6213290;22;46761;-65
2023/09/16 23:10:57;;;;;;;;;8.00;6.50;;;;;23.63;68.63;100736.09;6214381;22;45328;-65
2023/09/16 23:13:23;;;;;;;;;8.75;7.75;;;;;23.38;69.04;100691.06;6215542;22;45446;-65
2023/09/16 23:15:50;;;;;;;;;10.00;9.00;;;;;23.62;68.82;100739.81;6216177;22;45394;-65
2023/09/16 23:18:18;;;;;;;;;9.25;9.25;;;;;23.31;68.93;100689.88;6215241;22;46512;-65
2023/09/16 23:20:55;;;;;;;;;6.00;6.00;;;;;23.54;68.88;100728.72;6215907;22;45374;-65
2023/09/16 23:23:23;;;;;;;;;6.25;6.25;;;;;23.57;68.78;100739.38;6216147;22;45305;-65
2023/09/16 23:25:48;;;;;;;;;11.00;10.00;;;;;23.24;68.67;100689.53;6213877;22;45533;-65
2023/09/16 23:28:14;;;;;;;;;9.50;9.50;;;;;23.58;69.41;100738.34;6215574;22;45361;-65
2023/09/16 23:30:41;;;;;;;;;12.50;11.00;;;;;23.42;68.97;100719.78;6215983;22;45274;-65
2023/09/16 23:33:06;;;;;;;;;10.00;9.00;;;;;23.41;69.26;100714.44;6216084;22;45249;-65
2023/09/16 23:35:32;;;;;;;;;11.50;11.50;;;;;23.38;69.38;100712.00;6215962;22;45244;-65
2023/09/16 23:37:57;;;;;;;;;8.50;8.50;;;;;23.40;69.32;100720.88;6213909;22;48412;-65
2023/09/16 23:40:25;;;;;;;;;7.25;5.50;;;;;23.20;69.17;100689.94;6214429;22;45410;-65
2023/09/16 23:42:50;;;;;;;;;9.25;9.25;;;;;23.26;69.26;100694.84;6215561;22;45347;-65
2023/09/16 23:45:15;;;;;;;;;8.50;8.50;;;;;23.36;69.40;100712.13;6215710;22;45394;-65
2023/09/16 23:47:42;;;;;;;;;8.50;7.00;;;;;23.41;69.75;100723.47;6215082;22;45707;-65
2023/09/16 23:50:08;;;;;;;;;11.00;9.50;;;;;23.38;69.26;100718.28;6216045;22;45364;-65
2023/09/16 23:52:33;;;;;;;;;8.50;8.50;;;;;23.29;69.06;100710.94;6215615;22;45197;-65
2023/09/16 23:54:59;;;;;;;;;8.00;7.00;;;;;23.46;69.58;100736.72;6215436;22;45301;-65
2023/09/16 23:57:24;;;;;;;;;7.00;7.00;;;;;23.38;69.17;100726.47;6215340;22;45435;-65
2023/09/16 23:59:50;;;;;;;;;6.75;6.75;;;;;23.37;69.15;100721.16;6215500;22;45200;-65
